sensor_id;sensor_type;location;lat;lon;timestamp;temperature;humidity
3156;DHT22;1588;50.892;7.082;2023-04-25T00:00:33;7.70;99.90
3156;DHT22;1588;50.892;7.082;2023-04-25T00:05:38;7.70;99.90
3156;DHT22;1588;50.892;7.082;2023-04-25T00:10:48;7.60;99.90
3156;DHT22;1588;50.892;7.082;2023-04-25T00:15:51;7.60;99.90
3156;DHT22;1588;50.892;7.082;2023-04-25T00:20:53;7.70;99.90
3156;DHT22;1588;50.892;7.082;2023-04-25T00:25:58;7.70;99.90
3156;DHT22;1588;50.892;7.082;2023-04-25T00:31:01;7.60;99.90
3156;DHT22;1588;50.892;7.082;2023-04-25T00:36:07;7.60;99.90
3156;DHT22;1588;50.892;7.082;2023-04-25T00:41:11;7.60;99.90
3156;DHT22;1588;50.892;7.082;2023-04-25T00:46:14;7.40;99.90
3156;DHT22;1588;50.892;7.082;2023-04-25T00:51:20;7.40;99.90
3156;DHT22;1588;50.892;7.082;2023-04-25T00:56:26;7.10;99.90
3156;DHT22;1588;50.892;7.082;2023-04-25T01:01:28;7.00;99.90
3156;DHT22;1588;50.892;7.082;2023-04-25T01:06:32;6.80;99.90
3156;DHT22;1588;50.892;7.082;2023-04-25T01:11:38;6.60;99.90
3156;DHT22;1588;50.892;7.082;2023-04-25T01:16:44;6.50;99.90
3156;DHT22;1588;50.892;7.082;2023-04-25T01:21:48;6.40;99.90
3156;DHT22;1588;50.892;7.082;2023-04-25T01:26:54;6.30;99.90
3156;DHT22;1588;50.892;7.082;2023-04-25T01:31:57;6.20;99.90
3156;DHT22;1588;50.892;7.082;2023-04-25T01:37:02;6.20;99.90
3156;DHT22;1588;50.892;7.082;2023-04-25T01:42:06;6.20;99.90
3156;DHT22;1588;50.892;7.082;2023-04-25T01:47:09;6.20;99.90
3156;DHT22;1588;50.892;7.082;2023-04-25T01:52:12;6.40;99.90
3156;DHT22;1588;50.892;7.082;2023-04-25T01:57:17;6.40;99.90
3156;DHT22;1588;50.892;7.082;2023-04-25T02:02:20;6.50;99.90
3156;DHT22;1588;50.892;7.082;2023-04-25T02:07:25;6.60;99.90
3156;DHT22;1588;50.892;7.082;2023-04-25T02:12:28;6.60;99.90
3156;DHT22;1588;50.892;7.082;2023-04-25T02:17:31;6.50;99.90
3156;DHT22;1588;50.892;7.082;2023-04-25T02:22:38;6.50;99.90
3156;DHT22;1588;50.892;7.082;2023-04-25T02:27:40;6.40;99.90
3156;DHT22;1588;50.892;7.082;2023-04-25T02:32:43;6.20;99.90
3156;DHT22;1588;50.892;7.082;2023-04-25T02:37:52;6.10;99.90
3156;DHT22;1588;50.892;7.082;2023-04-25T02:42:55;6.20;99.90
3156;DHT22;1588;50.892;7.082;2023-04-25T02:47:57;6.20;99.90
3156;DHT22;1588;50.892;7.082;2023-04-25T02:53:01;6.30;99.90
3156;DHT22;1588;50.892;7.082;2023-04-25T02:58:06;6.30;99.90
3156;DHT22;1588;50.892;7.082;2023-04-25T03:03:08;6.40;99.90
3156;DHT22;1588;50.892;7.082;2023-04-25T03:08:14;6.50;99.90
3156;DHT22;1588;50.892;7.082;2023-04-25T03:13:22;6.50;99.90
3156;DHT22;1588;50.892;7.082;2023-04-25T03:18:25;6.50;99.90
3156;DHT22;1588;50.892;7.082;2023-04-25T03:23:37;6.50;99.90
3156;DHT22;1588;50.892;7.082;2023-04-25T03:28:40;6.60;99.90
3156;DHT22;1588;50.892;7.082;2023-04-25T03:33:42;6.50;99.90
3156;DHT22;1588;50.892;7.082;2023-04-25T03:38:46;6.50;99.90
3156;DHT22;1588;50.892;7.082;2023-04-25T03:43:49;6.50;99.90
3156;DHT22;1588;50.892;7.082;2023-04-25T03:48:54;6.50;99.90
3156;DHT22;1588;50.892;7.082;2023-04-25T03:53:58;6.50;99.90
3156;DHT22;1588;50.892;7.082;2023-04-25T03:59:00;6.60;99.90
3156;DHT22;1588;50.892;7.082;2023-04-25T04:04:06;6.60;99.90
3156;DHT22;1588;50.892;7.082;2023-04-25T04:09:10;6.60;99.90
3156;DHT22;1588;50.892;7.082;2023-04-25T04:14:13;6.60;99.90
3156;DHT22;1588;50.892;7.082;2023-04-25T04:19:15;6.60;99.90
3156;DHT22;1588;50.892;7.082;2023-04-25T04:24:21;6.70;99.90
3156;DHT22;1588;50.892;7.082;2023-04-25T04:29:25;6.70;99.90
3156;DHT22;1588;50.892;7.082;2023-04-25T04:34:28;6.80;99.90
3156;DHT22;1588;50.892;7.082;2023-04-25T04:39:33;6.80;99.90
3156;DHT22;1588;50.892;7.082;2023-04-25T04:44:36;6.90;99.90
3156;DHT22;1588;50.892;7.082;2023-04-25T04:49:39;7.00;99.90
3156;DHT22;1588;50.892;7.082;2023-04-25T04:54:44;6.90;99.90
3156;DHT22;1588;50.892;7.082;2023-04-25T04:59:47;7.00;99.90
3156;DHT22;1588;50.892;7.082;2023-04-25T05:04:49;7.00;99.90
3156;DHT22;1588;50.892;7.082;2023-04-25T05:09:56;7.10;99.90
3156;DHT22;1588;50.892;7.082;2023-04-25T05:14:58;7.20;99.90
3156;DHT22;1588;50.892;7.082;2023-04-25T05:20:01;7.10;99.90
3156;DHT22;1588;50.892;7.082;2023-04-25T05:25:08;7.10;99.90
3156;DHT22;1588;50.892;7.082;2023-04-25T05:30:14;7.20;99.90
3156;DHT22;1588;50.892;7.082;2023-04-25T05:35:16;7.20;99.90
3156;DHT22;1588;50.892;7.082;2023-04-25T05:40:20;7.30;99.90
3156;DHT22;1588;50.892;7.082;2023-04-25T05:45:23;7.30;99.90
3156;DHT22;1588;50.892;7.082;2023-04-25T05:50:25;7.50;99.90
3156;DHT22;1588;50.892;7.082;2023-04-25T05:55:29;7.60;99.90
3156;DHT22;1588;50.892;7.082;2023-04-25T06:00:33;7.80;99.90
3156;DHT22;1588;50.892;7.082;2023-04-25T06:05:37;8.00;99.90
3156;DHT22;1588;50.892;7.082;2023-04-25T06:10:41;8.00;99.90
3156;DHT22;1588;50.892;7.082;2023-04-25T06:15:43;8.40;99.90
3156;DHT22;1588;50.892;7.082;2023-04-25T06:20:46;8.90;99.90
3156;DHT22;1588;50.892;7.082;2023-04-25T06:25:50;9.40;99.90
3156;DHT22;1588;50.892;7.082;2023-04-25T06:30:53;10.00;99.90
3156;DHT22;1588;50.892;7.082;2023-04-25T06:35:57;10.60;99.90
3156;DHT22;1588;50.892;7.082;2023-04-25T06:41:00;10.90;99.90
3156;DHT22;1588;50.892;7.082;2023-04-25T06:46:03;10.40;99.90
3156;DHT22;1588;50.892;7.082;2023-04-25T06:51:06;10.20;99.90
3156;DHT22;1588;50.892;7.082;2023-04-25T06:56:10;10.40;99.90
3156;DHT22;1588;50.892;7.082;2023-04-25T07:01:12;11.30;99.90
3156;DHT22;1588;50.892;7.082;2023-04-25T07:06:15;11.00;99.90
3156;DHT22;1588;50.892;7.082;2023-04-25T07:11:19;11.50;99.90
3156;DHT22;1588;50.892;7.082;2023-04-25T07:16:21;12.50;99.90
3156;DHT22;1588;50.892;7.082;2023-04-25T07:21:23;13.10;99.90
3156;DHT22;1588;50.892;7.082;2023-04-25T07:26:28;13.60;99.90
3156;DHT22;1588;50.892;7.082;2023-04-25T07:31:30;13.40;99.90
3156;DHT22;1588;50.892;7.082;2023-04-25T07:36:33;12.40;99.90
3156;DHT22;1588;50.892;7.082;2023-04-25T07:41:37;12.00;99.90
3156;DHT22;1588;50.892;7.082;2023-04-25T07:46:40;12.30;99.90
3156;DHT22;1588;50.892;7.082;2023-04-25T07:51:43;12.50;99.90
3156;DHT22;1588;50.892;7.082;2023-04-25T07:56:47;11.20;99.90
3156;DHT22;1588;50.892;7.082;2023-04-25T08:01:49;10.10;99.90
3156;DHT22;1588;50.892;7.082;2023-04-25T08:06:52;9.70;99.90
3156;DHT22;1588;50.892;7.082;2023-04-25T08:11:58;10.90;99.90
3156;DHT22;1588;50.892;7.082;2023-04-25T08:17:02;11.60;99.90
3156;DHT22;1588;50.892;7.082;2023-04-25T08:22:06;11.80;99.90
3156;DHT22;1588;50.892;7.082;2023-04-25T08:27:10;12.20;99.90
3156;DHT22;1588;50.892;7.082;2023-04-25T08:32:13;12.30;99.90
3156;DHT22;1588;50.892;7.082;2023-04-25T08:37:32;12.10;99.90
3156;DHT22;1588;50.892;7.082;2023-04-25T08:42:53;11.90;99.90
3156;DHT22;1588;50.892;7.082;2023-04-25T08:47:57;11.90;99.90
3156;DHT22;1588;50.892;7.082;2023-04-25T08:53:04;11.30;99.90
3156;DHT22;1588;50.892;7.082;2023-04-25T08:58:23;12.10;99.90
3156;DHT22;1588;50.892;7.082;2023-04-25T09:03:28;11.80;99.90
3156;DHT22;1588;50.892;7.082;2023-04-25T09:08:31;11.00;99.90
3156;DHT22;1588;50.892;7.082;2023-04-25T09:13:35;10.40;99.90
3156;DHT22;1588;50.892;7.082;2023-04-25T09:18:38;10.40;99.90
3156;DHT22;1588;50.892;7.082;2023-04-25T09:23:43;10.20;99.90
3156;DHT22;1588;50.892;7.082;2023-04-25T09:28:47;10.00;99.90
3156;DHT22;1588;50.892;7.082;2023-04-25T09:33:50;9.90;99.90
3156;DHT22;1588;50.892;7.082;2023-04-25T09:38:52;9.80;99.90
3156;DHT22;1588;50.892;7.082;2023-04-25T09:43:58;9.90;99.90
3156;DHT22;1588;50.892;7.082;2023-04-25T09:49:06;10.20;99.90
3156;DHT22;1588;50.892;7.082;2023-04-25T09:54:09;10.70;99.90
3156;DHT22;1588;50.892;7.082;2023-04-25T09:59:13;11.10;99.90
3156;DHT22;1588;50.892;7.082;2023-04-25T10:04:20;11.40;99.90
3156;DHT22;1588;50.892;7.082;2023-04-25T10:09:26;11.30;99.90
3156;DHT22;1588;50.892;7.082;2023-04-25T10:14:32;11.60;99.90
3156;DHT22;1588;50.892;7.082;2023-04-25T10:19:35;11.80;99.90
3156;DHT22;1588;50.892;7.082;2023-04-25T10:24:37;11.00;99.90
3156;DHT22;1588;50.892;7.082;2023-04-25T10:29:41;10.30;99.90
3156;DHT22;1588;50.892;7.082;2023-04-25T10:34:48;10.10;99.90
3156;DHT22;1588;50.892;7.082;2023-04-25T10:39:51;10.20;99.90
3156;DHT22;1588;50.892;7.082;2023-04-25T10:45:05;10.60;99.90
3156;DHT22;1588;50.892;7.082;2023-04-25T10:50:21;10.70;99.90
3156;DHT22;1588;50.892;7.082;2023-04-25T10:55:49;10.90;99.90
3156;DHT22;1588;50.892;7.082;2023-04-25T11:00:54;11.20;99.90
3156;DHT22;1588;50.892;7.082;2023-04-25T11:05:58;13.20;99.90
3156;DHT22;1588;50.892;7.082;2023-04-25T11:11:02;12.90;99.90
3156;DHT22;1588;50.892;7.082;2023-04-25T11:16:09;11.90;99.90
3156;DHT22;1588;50.892;7.082;2023-04-25T11:21:11;11.20;99.90
3156;DHT22;1588;50.892;7.082;2023-04-25T11:26:16;10.90;99.90
3156;DHT22;1588;50.892;7.082;2023-04-25T11:31:21;10.80;99.90
3156;DHT22;1588;50.892;7.082;2023-04-25T11:36:24;10.80;99.90
3156;DHT22;1588;50.892;7.082;2023-04-25T11:41:26;11.10;99.90
3156;DHT22;1588;50.892;7.082;2023-04-25T11:46:30;11.30;99.90
3156;DHT22;1588;50.892;7.082;2023-04-25T11:51:38;11.40;99.90
3156;DHT22;1588;50.892;7.082;2023-04-25T11:56:42;11.60;99.90
3156;DHT22;1588;50.892;7.082;2023-04-25T12:02:01;11.40;99.90
3156;DHT22;1588;50.892;7.082;2023-04-25T12:07:04;11.60;99.90
3156;DHT22;1588;50.892;7.082;2023-04-25T12:12:09;13.30;99.90
3156;DHT22;1588;50.892;7.082;2023-04-25T12:17:14;14.20;99.90
3156;DHT22;1588;50.892;7.082;2023-04-25T12:22:21;14.20;99.90
3156;DHT22;1588;50.892;7.082;2023-04-25T12:27:25;14.60;99.90
3156;DHT22;1588;50.892;7.082;2023-04-25T12:32:29;14.00;99.90
3156;DHT22;1588;50.892;7.082;2023-04-25T12:37:33;13.50;99.90
3156;DHT22;1588;50.892;7.082;2023-04-25T12:42:39;12.80;99.90
3156;DHT22;1588;50.892;7.082;2023-04-25T12:47:42;12.50;99.90
3156;DHT22;1588;50.892;7.082;2023-04-25T12:52:45;12.90;99.90
3156;DHT22;1588;50.892;7.082;2023-04-25T12:57:48;13.10;99.90
3156;DHT22;1588;50.892;7.082;2023-04-25T13:02:54;12.90;99.90
3156;DHT22;1588;50.892;7.082;2023-04-25T13:07:57;13.00;99.90
3156;DHT22;1588;50.892;7.082;2023-04-25T13:13:00;12.80;99.90
3156;DHT22;1588;50.892;7.082;2023-04-25T13:18:04;12.90;99.90
3156;DHT22;1588;50.892;7.082;2023-04-25T13:23:07;12.80;99.90
3156;DHT22;1588;50.892;7.082;2023-04-25T13:28:11;12.50;99.90
3156;DHT22;1588;50.892;7.082;2023-04-25T13:33:15;12.10;99.90
3156;DHT22;1588;50.892;7.082;2023-04-25T13:38:18;11.90;99.90
3156;DHT22;1588;50.892;7.082;2023-04-25T13:43:21;12.00;99.90
3156;DHT22;1588;50.892;7.082;2023-04-25T13:48:25;12.00;99.90
3156;DHT22;1588;50.892;7.082;2023-04-25T13:53:28;12.10;99.90
3156;DHT22;1588;50.892;7.082;2023-04-25T13:58:31;12.40;99.90
3156;DHT22;1588;50.892;7.082;2023-04-25T14:03:35;13.00;99.90
3156;DHT22;1588;50.892;7.082;2023-04-25T14:08:37;13.30;99.90
3156;DHT22;1588;50.892;7.082;2023-04-25T14:13:40;13.40;99.90
3156;DHT22;1588;50.892;7.082;2023-04-25T14:18:44;13.70;99.90
3156;DHT22;1588;50.892;7.082;2023-04-25T14:23:47;13.70;99.90
3156;DHT22;1588;50.892;7.082;2023-04-25T14:28:51;13.50;99.90
3156;DHT22;1588;50.892;7.082;2023-04-25T14:33:55;13.70;99.90
3156;DHT22;1588;50.892;7.082;2023-04-25T14:38:58;13.20;99.90
3156;DHT22;1588;50.892;7.082;2023-04-25T14:44:01;12.50;99.90
3156;DHT22;1588;50.892;7.082;2023-04-25T14:49:05;12.30;99.90
3156;DHT22;1588;50.892;7.082;2023-04-25T14:54:08;12.00;99.90
3156;DHT22;1588;50.892;7.082;2023-04-25T14:59:12;11.90;99.90
3156;DHT22;1588;50.892;7.082;2023-04-25T15:04:15;11.80;99.90
3156;DHT22;1588;50.892;7.082;2023-04-25T15:09:18;11.90;99.90
3156;DHT22;1588;50.892;7.082;2023-04-25T15:14:21;12.50;99.90
3156;DHT22;1588;50.892;7.082;2023-04-25T15:19:25;12.40;99.90
3156;DHT22;1588;50.892;7.082;2023-04-25T15:24:27;11.90;99.90
3156;DHT22;1588;50.892;7.082;2023-04-25T15:29:31;11.70;99.90
3156;DHT22;1588;50.892;7.082;2023-04-25T15:35:08;11.70;99.90
3156;DHT22;1588;50.892;7.082;2023-04-25T15:40:18;11.90;99.90
3156;DHT22;1588;50.892;7.082;2023-04-25T15:45:45;11.60;99.90
3156;DHT22;1588;50.892;7.082;2023-04-25T15:50:49;11.60;99.90
3156;DHT22;1588;50.892;7.082;2023-04-25T15:55:51;11.90;99.90
3156;DHT22;1588;50.892;7.082;2023-04-25T16:00:54;12.30;99.90
3156;DHT22;1588;50.892;7.082;2023-04-25T16:05:58;12.20;99.90
3156;DHT22;1588;50.892;7.082;2023-04-25T16:11:01;12.20;99.90
3156;DHT22;1588;50.892;7.082;2023-04-25T16:16:04;12.00;99.90
3156;DHT22;1588;50.892;7.082;2023-04-25T16:21:14;12.00;99.90
3156;DHT22;1588;50.892;7.082;2023-04-25T16:26:16;11.80;99.90
3156;DHT22;1588;50.892;7.082;2023-04-25T16:31:19;11.60;99.90
3156;DHT22;1588;50.892;7.082;2023-04-25T16:36:23;11.70;99.90
3156;DHT22;1588;50.892;7.082;2023-04-25T16:41:29;11.50;99.90
3156;DHT22;1588;50.892;7.082;2023-04-25T16:46:37;11.70;99.90
3156;DHT22;1588;50.892;7.082;2023-04-25T16:51:47;11.70;99.90
3156;DHT22;1588;50.892;7.082;2023-04-25T16:56:51;11.20;99.90
3156;DHT22;1588;50.892;7.082;2023-04-25T17:02:02;11.00;99.90
3156;DHT22;1588;50.892;7.082;2023-04-25T17:07:15;10.90;99.90
3156;DHT22;1588;50.892;7.082;2023-04-25T17:12:20;10.80;99.90
3156;DHT22;1588;50.892;7.082;2023-04-25T17:17:23;10.70;99.90
3156;DHT22;1588;50.892;7.082;2023-04-25T17:22:35;11.00;99.90
3156;DHT22;1588;50.892;7.082;2023-04-25T17:27:57;11.00;99.90
3156;DHT22;1588;50.892;7.082;2023-04-25T17:33:04;11.20;99.90
3156;DHT22;1588;50.892;7.082;2023-04-25T17:43:54;11.30;99.90
3156;DHT22;1588;50.892;7.082;2023-04-25T17:48:58;11.20;99.90
3156;DHT22;1588;50.892;7.082;2023-04-25T17:54:01;10.90;99.90
3156;DHT22;1588;50.892;7.082;2023-04-25T17:59:13;10.60;99.90
3156;DHT22;1588;50.892;7.082;2023-04-25T18:04:18;10.40;99.90
3156;DHT22;1588;50.892;7.082;2023-04-25T18:09:31;10.20;99.90
3156;DHT22;1588;50.892;7.082;2023-04-25T18:14:49;10.00;99.90
3156;DHT22;1588;50.892;7.082;2023-04-25T18:19:53;9.90;99.90
3156;DHT22;1588;50.892;7.082;2023-04-25T18:25:17;9.70;99.90
3156;DHT22;1588;50.892;7.082;2023-04-25T18:30:25;9.60;99.90
3156;DHT22;1588;50.892;7.082;2023-04-25T18:35:43;9.50;99.90
3156;DHT22;1588;50.892;7.082;2023-04-25T18:40:49;9.40;99.90
3156;DHT22;1588;50.892;7.082;2023-04-25T18:45:56;9.30;99.90
3156;DHT22;1588;50.892;7.082;2023-04-25T18:51:05;9.20;99.90
3156;DHT22;1588;50.892;7.082;2023-04-25T18:56:09;9.10;99.90
3156;DHT22;1588;50.892;7.082;2023-04-25T19:01:17;9.00;99.90
3156;DHT22;1588;50.892;7.082;2023-04-25T19:06:35;8.90;99.90
3156;DHT22;1588;50.892;7.082;2023-04-25T19:12:02;8.80;99.90
3156;DHT22;1588;50.892;7.082;2023-04-25T19:17:17;8.90;99.90
3156;DHT22;1588;50.892;7.082;2023-04-25T19:22:42;8.90;99.90
3156;DHT22;1588;50.892;7.082;2023-04-25T19:27:51;8.80;99.90
3156;DHT22;1588;50.892;7.082;2023-04-25T19:32:57;8.60;99.90
3156;DHT22;1588;50.892;7.082;2023-04-25T19:38:08;8.40;99.90
3156;DHT22;1588;50.892;7.082;2023-04-25T19:43:24;8.40;99.90
3156;DHT22;1588;50.892;7.082;2023-04-25T19:48:37;8.30;99.90
3156;DHT22;1588;50.892;7.082;2023-04-25T19:53:44;8.20;99.90
3156;DHT22;1588;50.892;7.082;2023-04-25T19:58:54;8.10;99.90
3156;DHT22;1588;50.892;7.082;2023-04-25T20:04:05;8.00;99.90
3156;DHT22;1588;50.892;7.082;2023-04-25T20:09:12;7.90;99.90
3156;DHT22;1588;50.892;7.082;2023-04-25T20:14:35;7.90;99.90
3156;DHT22;1588;50.892;7.082;2023-04-25T20:19:39;7.90;99.90
3156;DHT22;1588;50.892;7.082;2023-04-25T20:24:42;7.70;99.90
3156;DHT22;1588;50.892;7.082;2023-04-25T20:29:45;7.60;99.90
3156;DHT22;1588;50.892;7.082;2023-04-25T20:34:49;7.40;99.90
3156;DHT22;1588;50.892;7.082;2023-04-25T20:39:51;7.40;99.90
3156;DHT22;1588;50.892;7.082;2023-04-25T20:44:54;7.30;99.90
3156;DHT22;1588;50.892;7.082;2023-04-25T20:49:58;7.20;99.90
3156;DHT22;1588;50.892;7.082;2023-04-25T20:55:05;7.10;99.90
3156;DHT22;1588;50.892;7.082;2023-04-25T21:00:09;6.90;99.90
3156;DHT22;1588;50.892;7.082;2023-04-25T21:05:19;6.80;99.90
3156;DHT22;1588;50.892;7.082;2023-04-25T21:10:22;6.60;99.90
3156;DHT22;1588;50.892;7.082;2023-04-25T21:15:25;6.50;99.90
3156;DHT22;1588;50.892;7.082;2023-04-25T21:20:29;6.30;99.90
3156;DHT22;1588;50.892;7.082;2023-04-25T21:25:31;6.20;99.90
3156;DHT22;1588;50.892;7.082;2023-04-25T21:30:34;6.00;99.90
3156;DHT22;1588;50.892;7.082;2023-04-25T21:35:37;5.90;99.90
3156;DHT22;1588;50.892;7.082;2023-04-25T21:40:40;5.90;99.90
3156;DHT22;1588;50.892;7.082;2023-04-25T21:45:43;6.00;99.90
3156;DHT22;1588;50.892;7.082;2023-04-25T21:50:55;6.10;99.90
3156;DHT22;1588;50.892;7.082;2023-04-25T21:55:58;6.10;99.90
3156;DHT22;1588;50.892;7.082;2023-04-25T22:01:00;6.10;99.90
3156;DHT22;1588;50.892;7.082;2023-04-25T22:06:04;6.10;99.90
3156;DHT22;1588;50.892;7.082;2023-04-25T22:11:07;6.10;99.90
3156;DHT22;1588;50.892;7.082;2023-04-25T22:16:09;6.00;99.90
3156;DHT22;1588;50.892;7.082;2023-04-25T22:21:13;5.80;99.90
3156;DHT22;1588;50.892;7.082;2023-04-25T22:26:15;5.80;99.90
3156;DHT22;1588;50.892;7.082;2023-04-25T22:31:18;5.70;99.90
3156;DHT22;1588;50.892;7.082;2023-04-25T22:36:27;5.70;99.90
3156;DHT22;1588;50.892;7.082;2023-04-25T22:41:30;5.70;99.90
3156;DHT22;1588;50.892;7.082;2023-04-25T22:46:33;5.60;99.90
3156;DHT22;1588;50.892;7.082;2023-04-25T22:51:36;5.60;99.90
3156;DHT22;1588;50.892;7.082;2023-04-25T22:56:41;5.50;99.90
3156;DHT22;1588;50.892;7.082;2023-04-25T23:01:45;5.50;99.90
3156;DHT22;1588;50.892;7.082;2023-04-25T23:06:49;5.30;99.90
3156;DHT22;1588;50.892;7.082;2023-04-25T23:11:52;5.20;99.90
3156;DHT22;1588;50.892;7.082;2023-04-25T23:16:54;5.10;99.90
3156;DHT22;1588;50.892;7.082;2023-04-25T23:21:58;4.80;99.90
3156;DHT22;1588;50.892;7.082;2023-04-25T23:27:00;4.60;99.90
3156;DHT22;1588;50.892;7.082;2023-04-25T23:32:03;4.40;99.90
3156;DHT22;1588;50.892;7.082;2023-04-25T23:37:07;4.30;99.90
3156;DHT22;1588;50.892;7.082;2023-04-25T23:42:13;4.20;99.90
3156;DHT22;1588;50.892;7.082;2023-04-25T23:47:15;3.90;99.90
3156;DHT22;1588;50.892;7.082;2023-04-25T23:52:20;3.80;99.90
3156;DHT22;1588;50.892;7.082;2023-04-25T23:57:23;3.70;99.90
